Terminal Aerodrome Forecast
Issued by NWS

Home | Current Version | Previous Version | Text Only | Print | Product List | Glossary Off
Versions: 1 2 3 4 5 6 7 8 9 10 11 12 13 14 15 16 17 18 19 20 21

290
FTUS43 KICT 152349
TAFCNU
TAF
KCNU 152349Z 1600/1624 07005KT 1 1/2SM BR OVC002
      TEMPO 1602/1606 3/4SM SHRA BR
     FM160600 09007KT 1/2SM FG OVC002
      TEMPO 1606/1610 2SM +SHRA
     FM161200 13008KT 1/2SM FG OVC003 WS020/16040KT
      TEMPO 1612/1615 2SM SHRA
     FM161500 16009KT 1SM BR OVC003
     FM161700 18014G22KT P6SM OVC012=

USA.gov is the U.S. government's official web portal to all federal, state and local government web resources and services.